createdAt,value
2022-11-16T00:00:12.704Z,28.29
2022-11-16T00:01:21.684Z,27.94
2022-11-16T00:02:15.756Z,27.58
2022-11-16T00:02:58.719Z,27.51
2022-11-16T00:03:39.751Z,28.50
2022-11-16T00:04:19.657Z,29.56
2022-11-16T00:05:02.774Z,28.99
2022-11-16T00:05:42.721Z,29.52
2022-11-16T00:06:23.640Z,29.60
2022-11-16T00:07:03.711Z,29.86
2022-11-16T00:07:58.699Z,29.27
2022-11-16T00:09:15.677Z,28.98
2022-11-16T00:10:09.695Z,29.02
2022-11-16T00:11:03.670Z,29.06
2022-11-16T00:11:58.703Z,28.60
2022-11-16T00:12:52.693Z,28.23
2022-11-16T00:13:32.678Z,28.76
2022-11-16T00:14:13.783Z,29.27
2022-11-16T00:14:54.686Z,29.02
2022-11-16T00:15:34.711Z,28.09
2022-11-16T00:16:21.674Z,28.31
2022-11-16T00:17:02.754Z,28.48
2022-11-16T00:17:42.679Z,28.92
2022-11-16T00:18:22.751Z,28.49
2022-11-16T00:19:05.704Z,28.41
2022-11-16T00:19:45.715Z,28.65
2022-11-16T00:20:25.680Z,28.91
2022-11-16T00:21:05.777Z,29.76
2022-11-16T00:21:46.679Z,29.29
2022-11-16T00:22:26.718Z,29.86
2022-11-16T00:23:06.657Z,29.55
2022-11-16T00:23:46.733Z,29.59
2022-11-16T00:24:28.688Z,30.60
2022-11-16T00:25:08.723Z,30.50
2022-11-16T00:25:48.681Z,30.29
2022-11-16T00:26:28.851Z,30.92
2022-11-16T00:27:08.652Z,31.35
2022-11-16T00:27:48.729Z,30.50
2022-11-16T00:28:28.651Z,29.77
2022-11-16T00:29:08.731Z,29.96
2022-11-16T00:29:48.651Z,31.20
2022-11-16T00:30:28.707Z,31.27
2022-11-16T00:31:11.686Z,31.26
2022-11-16T00:31:52.993Z,31.17
2022-11-16T00:32:32.651Z,31.13
2022-11-16T00:33:13.720Z,31.27
2022-11-16T00:33:54.656Z,30.23
2022-11-16T00:34:34.777Z,30.61
2022-11-16T00:35:15.658Z,29.55
2022-11-16T00:35:55.750Z,29.44
2022-11-16T00:36:35.631Z,29.33
2022-11-16T00:37:15.746Z,29.10
2022-11-16T00:37:55.657Z,29.11
2022-11-16T00:38:36.017Z,29.41
2022-11-16T00:39:21.635Z,29.76
2022-11-16T00:40:01.717Z,29.67
2022-11-16T00:40:41.707Z,29.51
2022-11-16T00:41:21.714Z,29.09
2022-11-16T00:42:01.640Z,29.20
2022-11-16T00:42:41.710Z,28.86
2022-11-16T00:43:22.650Z,29.44
2022-11-16T00:44:02.721Z,28.76
2022-11-16T00:44:42.650Z,28.99
2022-11-16T00:45:22.697Z,30.01
2022-11-16T00:46:02.673Z,29.80
2022-11-16T00:46:42.710Z,29.45
2022-11-16T00:47:22.626Z,29.31
2022-11-16T00:48:02.663Z,28.76
2022-11-16T00:48:43.629Z,29.35
2022-11-16T00:49:23.814Z,30.27
2022-11-16T00:50:03.615Z,30.14
2022-11-16T00:50:44.742Z,29.95
2022-11-16T00:51:24.693Z,29.99
2022-11-16T00:52:04.697Z,30.67
2022-11-16T00:52:45.640Z,30.83
2022-11-16T00:53:26.719Z,29.98
2022-11-16T00:54:07.619Z,30.48
2022-11-16T00:54:48.434Z,31.19
2022-11-16T00:55:29.623Z,30.61
2022-11-16T00:56:10.754Z,30.88
2022-11-16T00:56:50.671Z,31.01
2022-11-16T00:57:30.719Z,31.05
2022-11-16T00:58:10.657Z,31.19
2022-11-16T00:58:50.726Z,30.61
2022-11-16T00:59:30.633Z,30.65
2022-11-16T01:00:11.707Z,31.17
2022-11-16T01:01:05.671Z,30.91
2022-11-16T01:01:59.647Z,31.88
2022-11-16T01:02:53.615Z,31.49
2022-11-16T01:03:49.641Z,31.56
2022-11-16T01:04:43.644Z,32.75
2022-11-16T01:05:37.636Z,32.49
2022-11-16T01:06:31.636Z,31.65
2022-11-16T01:07:18.737Z,32.05
2022-11-16T01:07:52.674Z,32.16
2022-11-16T01:08:42.591Z,32.04
2022-11-16T01:09:16.672Z,32.46
2022-11-16T01:10:03.639Z,32.09
2022-11-16T01:10:37.713Z,32.11
2022-11-16T01:11:44.653Z,32.41
2022-11-16T01:12:32.663Z,31.99
2022-11-16T01:13:06.814Z,31.79
2022-11-16T01:13:53.596Z,31.44
2022-11-16T01:14:27.299Z,31.21
2022-11-16T01:15:17.590Z,31.27
2022-11-16T01:15:51.304Z,31.63
2022-11-16T01:16:38.646Z,31.14
2022-11-16T01:17:14.292Z,32.09
2022-11-16T01:17:55.640Z,32.30
2022-11-16T01:18:29.749Z,31.77
2022-11-16T01:19:04.458Z,32.20
2022-11-16T01:19:45.582Z,32.70
2022-11-16T01:20:26.667Z,32.19
2022-11-16T01:21:00.305Z,32.40
2022-11-16T01:21:41.614Z,32.46
2022-11-16T01:22:15.658Z,31.83
2022-11-16T01:23:02.640Z,31.69
2022-11-16T01:23:36.747Z,32.86
2022-11-16T01:24:23.608Z,32.88
2022-11-16T01:24:57.646Z,32.45
2022-11-16T01:25:44.589Z,32.65
2022-11-16T01:26:18.671Z,33.67
2022-11-16T01:27:05.608Z,33.24
2022-11-16T01:27:39.639Z,33.63
2022-11-16T01:28:26.600Z,32.19
2022-11-16T01:29:00.633Z,32.25
2022-11-16T01:29:47.618Z,31.69
2022-11-16T01:30:22.660Z,31.34
2022-11-16T01:31:10.589Z,31.26
2022-11-16T01:31:44.661Z,31.59
2022-11-16T01:32:31.591Z,30.81
2022-11-16T01:33:05.653Z,31.19
2022-11-16T01:33:45.626Z,31.66
2022-11-16T01:34:25.631Z,31.40
2022-11-16T01:35:05.584Z,32.04
2022-11-16T01:35:50.661Z,31.86
2022-11-16T01:36:30.600Z,31.92
2022-11-16T01:37:10.710Z,32.96
2022-11-16T01:37:51.573Z,31.94
2022-11-16T01:38:31.931Z,31.39
2022-11-16T01:39:13.615Z,32.10
2022-11-16T01:39:56.658Z,32.14
2022-11-16T01:40:37.579Z,32.66
2022-11-16T01:41:28.632Z,33.36
2022-11-16T01:42:09.634Z,32.92
2022-11-16T01:42:49.642Z,32.74
2022-11-16T01:43:32.569Z,32.25
2022-11-16T01:44:28.688Z,32.04
2022-11-16T01:45:50.592Z,32.03
2022-11-16T01:46:45.583Z,31.61
2022-11-16T01:47:39.564Z,31.65
2022-11-16T01:48:41.620Z,30.86
2022-11-16T01:49:37.598Z,30.67
2022-11-16T01:50:32.568Z,31.30
2022-11-16T01:51:26.565Z,31.11
2022-11-16T01:52:28.566Z,31.30
2022-11-16T01:53:24.563Z,30.94
2022-11-16T01:54:23.545Z,31.17
2022-11-16T01:55:04.599Z,31.69
2022-11-16T01:55:45.630Z,31.30
2022-11-16T01:56:27.599Z,30.92
2022-11-16T01:57:09.641Z,31.36
2022-11-16T01:57:51.562Z,30.84
2022-11-16T01:58:32.986Z,30.54
2022-11-16T01:59:14.560Z,31.04
2022-11-16T01:59:56.680Z,31.01
2022-11-16T02:00:36.588Z,31.08
2022-11-16T02:01:16.752Z,30.86
2022-11-16T02:01:56.550Z,31.23
2022-11-16T02:02:36.630Z,32.16
2022-11-16T02:03:16.587Z,31.40
2022-11-16T02:03:56.628Z,31.79
2022-11-16T02:04:36.549Z,31.33
2022-11-16T02:05:20.607Z,30.69
2022-11-16T02:06:47.629Z,31.41
2022-11-16T02:08:14.126Z,32.17
2022-11-16T02:09:40.590Z,31.50
2022-11-16T02:10:55.635Z,31.59
2022-11-16T02:12:05.587Z,31.33
2022-11-16T02:13:25.619Z,31.56
2022-11-16T02:14:46.534Z,30.95
2022-11-16T02:16:01.648Z,30.92
2022-11-16T02:16:49.549Z,31.14
2022-11-16T02:17:49.597Z,30.83
2022-11-16T02:18:55.624Z,31.09
2022-11-16T02:20:32.515Z,30.94
2022-11-16T02:21:35.609Z,30.70
2022-11-16T02:22:53.582Z,30.46
2022-11-16T02:24:00.611Z,30.42
2022-11-16T02:24:52.542Z,30.77
2022-11-16T02:26:02.622Z,30.58
2022-11-16T02:26:58.523Z,30.65
2022-11-16T02:28:16.599Z,31.02
2022-11-16T02:29:40.098Z,30.61
2022-11-16T02:30:27.545Z,30.63
2022-11-16T02:31:05.422Z,30.38
2022-11-16T02:32:19.571Z,29.99
2022-11-16T02:33:04.792Z,30.19
2022-11-16T02:33:46.531Z,30.14
2022-11-16T02:34:23.591Z,30.91
2022-11-16T02:35:27.725Z,31.16
2022-11-16T02:36:10.531Z,31.54
2022-11-16T02:36:45.594Z,31.21
2022-11-16T02:37:22.361Z,31.19
2022-11-16T02:38:34.945Z,31.94
2022-11-16T02:39:25.530Z,31.49
2022-11-16T02:40:02.928Z,31.16
2022-11-16T02:40:52.548Z,31.21
2022-11-16T02:41:28.350Z,30.74
2022-11-16T02:42:16.536Z,31.20
2022-11-16T02:43:10.037Z,30.46
2022-11-16T02:44:03.554Z,30.63
2022-11-16T02:44:50.570Z,30.21
2022-11-16T02:45:36.419Z,30.52
2022-11-16T02:46:23.532Z,31.05
2022-11-16T02:47:07.564Z,30.96
2022-11-16T02:47:48.555Z,31.35
2022-11-16T02:48:33.831Z,30.94
2022-11-16T02:49:23.528Z,31.11
2022-11-16T02:50:17.544Z,31.89
2022-11-16T02:50:52.992Z,31.34
2022-11-16T02:51:40.515Z,32.58
2022-11-16T02:52:15.188Z,32.41
2022-11-16T02:53:02.503Z,31.42
2022-11-16T02:53:50.545Z,31.19
2022-11-16T02:54:37.537Z,31.79
2022-11-16T02:55:12.675Z,31.21
2022-11-16T02:55:52.542Z,31.17
2022-11-16T02:56:26.634Z,31.50
2022-11-16T02:57:04.066Z,31.11
2022-11-16T02:58:07.535Z,31.38
2022-11-16T02:58:41.557Z,32.14
2022-11-16T02:59:17.745Z,31.71
2022-11-16T03:00:01.506Z,31.51
2022-11-16T03:01:02.587Z,31.20
2022-11-16T03:01:41.659Z,30.76
2022-11-16T03:02:44.533Z,30.75
2022-11-16T03:04:07.119Z,30.49
2022-11-16T03:05:00.515Z,30.65
2022-11-16T03:05:44.454Z,30.20
2022-11-16T03:06:31.528Z,30.50
2022-11-16T03:07:13.590Z,29.24
2022-11-16T03:08:21.499Z,28.99
2022-11-16T03:09:07.633Z,28.55
2022-11-16T03:09:48.503Z,28.55
2022-11-16T03:10:48.024Z,28.44
2022-11-16T03:11:47.548Z,28.11
2022-11-16T03:12:32.539Z,28.23
2022-11-16T03:13:15.481Z,27.73
2022-11-16T03:13:56.585Z,27.80
2022-11-16T03:14:52.528Z,27.34
2022-11-16T03:15:32.575Z,27.71
2022-11-16T03:16:38.467Z,27.66
2022-11-16T03:17:40.507Z,27.64
2022-11-16T03:18:15.524Z,27.01
2022-11-16T03:19:04.481Z,26.17
2022-11-16T03:19:49.776Z,26.00
2022-11-16T03:20:38.676Z,26.33
2022-11-16T03:21:27.544Z,26.19
2022-11-16T03:22:22.693Z,25.06
2022-11-16T03:23:07.533Z,25.50
2022-11-16T03:24:01.535Z,26.15
2022-11-16T03:24:55.486Z,26.17
2022-11-16T03:26:03.495Z,26.42
2022-11-16T03:27:16.490Z,26.38
2022-11-16T03:28:21.520Z,26.55
2022-11-16T03:29:28.496Z,27.39
2022-11-16T03:30:32.467Z,26.30
2022-11-16T03:31:41.474Z,26.06
2022-11-16T03:32:58.504Z,26.09
2022-11-16T03:33:53.495Z,25.85
2022-11-16T03:34:29.543Z,25.61
2022-11-16T03:35:36.471Z,25.92
2022-11-16T03:36:30.560Z,25.52
2022-11-16T03:37:18.471Z,25.20
2022-11-16T03:37:56.508Z,24.86
2022-11-16T03:38:45.463Z,24.38
2022-11-16T03:39:35.554Z,23.76
2022-11-16T03:40:31.469Z,22.67
2022-11-16T03:41:26.479Z,23.05
2022-11-16T03:42:25.488Z,23.59
2022-11-16T03:43:20.459Z,23.04
2022-11-16T03:44:15.461Z,23.15
2022-11-16T03:44:56.498Z,23.31
2022-11-16T03:45:37.504Z,23.00
2022-11-16T03:46:18.479Z,23.19
2022-11-16T03:46:59.556Z,23.38
2022-11-16T03:47:39.466Z,23.35
2022-11-16T03:48:20.507Z,22.45
2022-11-16T03:49:06.447Z,22.74
2022-11-16T03:49:52.497Z,23.20
2022-11-16T03:50:33.477Z,23.19
2022-11-16T03:51:16.542Z,22.71
2022-11-16T03:51:57.449Z,22.96
2022-11-16T03:52:37.508Z,22.79
2022-11-16T03:53:17.460Z,23.02
2022-11-16T03:53:57.478Z,22.73
2022-11-16T03:54:37.448Z,23.10
2022-11-16T03:55:17.728Z,23.55
2022-11-16T03:55:57.479Z,23.44
2022-11-16T03:56:37.501Z,23.96
2022-11-16T03:57:22.438Z,24.83
2022-11-16T03:58:02.532Z,24.77
2022-11-16T03:58:42.447Z,24.63
2022-11-16T03:59:22.527Z,24.34
2022-11-16T04:00:02.452Z,23.58
2022-11-16T04:00:42.528Z,23.90
2022-11-16T04:01:23.497Z,24.40
2022-11-16T04:02:03.531Z,24.16
2022-11-16T04:02:43.447Z,23.48
2022-11-16T04:03:23.465Z,23.35
2022-11-16T04:04:03.435Z,23.41
2022-11-16T04:05:02.090Z,23.10
2022-11-16T04:06:01.467Z,22.75
2022-11-16T04:07:00.502Z,22.05
2022-11-16T04:07:53.176Z,21.71
2022-11-16T04:08:59.456Z,21.71
2022-11-16T04:09:52.017Z,22.30
2022-11-16T04:10:58.452Z,22.66
2022-11-16T04:11:51.264Z,22.26
2022-11-16T04:12:50.482Z,22.55
2022-11-16T04:13:56.258Z,22.52
2022-11-16T04:14:55.431Z,22.99
2022-11-16T04:15:54.223Z,22.83
2022-11-16T04:16:53.444Z,22.55
2022-11-16T04:17:58.434Z,22.52
2022-11-16T04:19:10.481Z,22.16
2022-11-16T04:20:22.464Z,22.48
2022-11-16T04:21:28.044Z,22.08
2022-11-16T04:22:35.442Z,22.25
2022-11-16T04:23:38.470Z,22.51
2022-11-16T04:24:14.500Z,22.33
2022-11-16T04:25:12.426Z,22.15
2022-11-16T04:25:47.818Z,21.13
2022-11-16T04:27:03.449Z,20.96
2022-11-16T04:27:55.897Z,20.91
2022-11-16T04:28:43.453Z,20.92
2022-11-16T04:29:17.466Z,21.17
2022-11-16T04:30:05.418Z,21.52
2022-11-16T04:30:58.254Z,21.80
2022-11-16T04:32:04.433Z,21.09
2022-11-16T04:32:58.066Z,20.21
2022-11-16T04:34:04.445Z,20.42
2022-11-16T04:34:57.031Z,20.85
2022-11-16T04:36:03.428Z,20.79
2022-11-16T04:36:56.295Z,20.48
2022-11-16T04:37:55.405Z,20.84
2022-11-16T04:38:29.478Z,21.06
2022-11-16T04:39:16.441Z,21.61
2022-11-16T04:39:50.484Z,21.60
2022-11-16T04:40:37.419Z,21.05
2022-11-16T04:41:31.433Z,21.34
2022-11-16T04:42:28.384Z,21.76
2022-11-16T04:43:04.508Z,21.39
2022-11-16T04:43:51.391Z,21.56
2022-11-16T04:44:52.450Z,21.69
2022-11-16T04:46:04.399Z,21.26
2022-11-16T04:47:13.427Z,21.52
2022-11-16T04:48:08.409Z,21.89
2022-11-16T04:49:02.414Z,22.23
2022-11-16T04:49:56.425Z,22.31
2022-11-16T04:50:51.386Z,21.98
2022-11-16T04:51:45.405Z,22.10
2022-11-16T04:52:39.491Z,22.51
2022-11-16T04:53:34.449Z,21.70
2022-11-16T04:54:28.411Z,21.26
2022-11-16T04:55:16.420Z,21.42
2022-11-16T04:55:51.033Z,22.23
2022-11-16T04:56:38.376Z,22.91
2022-11-16T04:57:12.416Z,22.64
2022-11-16T04:57:59.400Z,21.46
2022-11-16T04:58:33.657Z,22.08
2022-11-16T04:59:20.391Z,22.38
2022-11-16T04:59:54.534Z,21.85
2022-11-16T05:00:41.404Z,21.99
2022-11-16T05:01:15.502Z,21.94
2022-11-16T05:02:14.376Z,21.58
2022-11-16T05:02:48.432Z,21.54
2022-11-16T05:03:35.371Z,20.90
2022-11-16T05:04:09.543Z,21.70
2022-11-16T05:04:56.406Z,21.65
2022-11-16T05:05:30.499Z,21.52
2022-11-16T05:06:11.398Z,21.59
2022-11-16T05:06:51.456Z,21.35
2022-11-16T05:07:31.404Z,21.09
2022-11-16T05:08:11.444Z,21.45
2022-11-16T05:08:51.377Z,21.66
2022-11-16T05:09:31.429Z,21.27
2022-11-16T05:10:13.356Z,20.86
2022-11-16T05:10:59.459Z,21.05
2022-11-16T05:11:39.409Z,21.21
2022-11-16T05:12:30.417Z,20.92
2022-11-16T05:13:10.389Z,20.33
2022-11-16T05:13:50.568Z,19.85
2022-11-16T05:14:30.392Z,20.01
2022-11-16T05:15:12.505Z,20.41
2022-11-16T05:15:53.363Z,20.11
2022-11-16T05:16:33.519Z,19.73
2022-11-16T05:17:14.395Z,19.80
2022-11-16T05:17:55.711Z,19.31
2022-11-16T05:18:35.591Z,18.84
2022-11-16T05:19:34.997Z,18.90
2022-11-16T05:20:35.375Z,18.70
2022-11-16T05:21:15.418Z,18.81
2022-11-16T05:21:55.352Z,18.61
2022-11-16T05:22:35.376Z,18.49
2022-11-16T05:23:29.411Z,18.52
2022-11-16T05:24:35.398Z,18.56
2022-11-16T05:25:09.435Z,19.24
2022-11-16T05:25:56.373Z,19.65
2022-11-16T05:26:30.408Z,19.56
2022-11-16T05:27:20.359Z,19.36
2022-11-16T05:28:01.372Z,20.42
2022-11-16T05:28:55.339Z,21.42
2022-11-16T05:29:50.356Z,22.17
2022-11-16T05:30:44.384Z,21.74
2022-11-16T05:31:40.542Z,21.30
2022-11-16T05:32:36.368Z,20.90
2022-11-16T05:33:25.414Z,20.42
2022-11-16T05:33:59.379Z,20.46
2022-11-16T05:34:46.342Z,20.33
2022-11-16T05:35:20.606Z,20.65
2022-11-16T05:36:07.353Z,20.63
2022-11-16T05:36:41.463Z,20.14
2022-11-16T05:37:32.385Z,20.04
2022-11-16T05:38:06.424Z,20.00
2022-11-16T05:38:46.383Z,20.01
2022-11-16T05:39:26.514Z,19.38
2022-11-16T05:40:07.346Z,20.23
2022-11-16T05:40:47.675Z,20.11
2022-11-16T05:41:27.349Z,19.01
2022-11-16T05:42:08.439Z,19.08
2022-11-16T05:42:48.343Z,19.09
2022-11-16T05:43:28.468Z,19.40
2022-11-16T05:44:08.351Z,19.41
2022-11-16T05:44:48.424Z,19.99
2022-11-16T05:45:28.399Z,19.85
2022-11-16T05:46:08.428Z,19.64
2022-11-16T05:46:49.354Z,20.58
2022-11-16T05:47:29.470Z,21.80
2022-11-16T05:48:09.336Z,20.51
2022-11-16T05:48:49.399Z,19.55
2022-11-16T05:49:30.347Z,19.50
2022-11-16T05:50:10.386Z,19.96
2022-11-16T05:50:50.374Z,19.54
2022-11-16T05:51:30.394Z,19.29
2022-11-16T05:52:10.319Z,19.35
2022-11-16T05:52:50.419Z,19.41
2022-11-16T05:53:31.342Z,19.79
2022-11-16T05:54:12.628Z,19.48
2022-11-16T05:54:52.366Z,19.71
2022-11-16T05:55:32.360Z,19.88
2022-11-16T05:56:13.391Z,19.70
2022-11-16T05:56:55.455Z,19.92
2022-11-16T05:57:35.338Z,20.34
2022-11-16T05:58:15.432Z,20.77
2022-11-16T05:58:56.344Z,20.81
2022-11-16T05:59:36.382Z,20.06
2022-11-16T06:00:17.345Z,20.01
2022-11-16T06:00:57.365Z,20.15
2022-11-16T06:01:37.293Z,19.64
2022-11-16T06:02:17.429Z,19.54
2022-11-16T06:02:57.451Z,19.36
2022-11-16T06:03:38.465Z,19.76
2022-11-16T06:04:24.674Z,20.13
2022-11-16T06:05:05.389Z,19.70
2022-11-16T06:05:45.339Z,19.26
2022-11-16T06:06:26.376Z,19.58
2022-11-16T06:07:06.338Z,19.73
2022-11-16T06:07:46.376Z,19.35
2022-11-16T06:08:27.340Z,19.56
2022-11-16T06:09:07.845Z,19.36
2022-11-16T06:09:47.339Z,19.46
2022-11-16T06:10:27.357Z,19.88
2022-11-16T06:11:10.348Z,20.06
2022-11-16T06:11:50.392Z,20.01
2022-11-16T06:12:30.318Z,20.21
2022-11-16T06:13:10.360Z,19.77
2022-11-16T06:13:51.325Z,20.48
2022-11-16T06:14:31.418Z,20.38
2022-11-16T06:15:12.319Z,20.39
2022-11-16T06:15:52.372Z,20.60
2022-11-16T06:16:32.409Z,21.55
2022-11-16T06:17:14.485Z,21.95
2022-11-16T06:17:55.340Z,21.91
2022-11-16T06:18:35.713Z,22.33
2022-11-16T06:19:16.326Z,22.35
2022-11-16T06:19:56.368Z,21.99
2022-11-16T06:20:36.311Z,22.23
2022-11-16T06:21:17.515Z,21.69
2022-11-16T06:21:57.341Z,21.67
2022-11-16T06:22:37.530Z,20.85
2022-11-16T06:23:17.338Z,20.51
2022-11-16T06:23:57.352Z,21.02
2022-11-16T06:24:37.292Z,21.23
2022-11-16T06:25:17.357Z,20.95
2022-11-16T06:26:01.309Z,20.51
2022-11-16T06:26:41.424Z,20.61
2022-11-16T06:27:22.304Z,20.39
2022-11-16T06:28:07.516Z,20.05
2022-11-16T06:28:49.303Z,19.86
2022-11-16T06:29:29.344Z,20.36
2022-11-16T06:30:09.327Z,20.11
2022-11-16T06:31:03.335Z,19.77
2022-11-16T06:31:57.283Z,19.94
2022-11-16T06:32:45.338Z,19.70
2022-11-16T06:33:19.347Z,20.11
2022-11-16T06:34:06.299Z,19.85
2022-11-16T06:34:40.332Z,19.29
2022-11-16T06:35:27.385Z,18.75
2022-11-16T06:36:01.335Z,19.25
2022-11-16T06:36:48.295Z,20.19
2022-11-16T06:37:22.367Z,20.10
2022-11-16T06:38:09.335Z,20.06
2022-11-16T06:38:43.350Z,19.96
2022-11-16T06:39:30.267Z,18.84
2022-11-16T06:40:04.363Z,19.14
2022-11-16T06:40:59.287Z,19.19
2022-11-16T06:41:37.642Z,19.11
2022-11-16T06:42:27.326Z,18.88
2022-11-16T06:43:01.414Z,18.67
2022-11-16T06:43:41.324Z,18.02
2022-11-16T06:44:21.394Z,18.60
2022-11-16T06:45:03.282Z,18.95
2022-11-16T06:45:43.327Z,18.67
2022-11-16T06:46:23.276Z,18.17
2022-11-16T06:47:03.340Z,18.30
2022-11-16T06:47:43.285Z,18.25
2022-11-16T06:48:24.331Z,18.13
2022-11-16T06:49:04.287Z,17.92
2022-11-16T06:49:44.375Z,17.69
2022-11-16T06:50:27.156Z,17.67
2022-11-16T06:51:07.334Z,17.67
2022-11-16T06:51:48.281Z,17.59
2022-11-16T06:52:28.341Z,17.52
2022-11-16T06:53:08.268Z,17.90
2022-11-16T06:53:48.329Z,17.89
2022-11-16T06:54:28.308Z,17.10
2022-11-16T06:55:08.319Z,17.11
2022-11-16T06:55:48.284Z,17.09
2022-11-16T06:56:28.340Z,17.20
2022-11-16T06:57:08.277Z,17.00
2022-11-16T06:57:48.319Z,16.92
2022-11-16T06:58:28.272Z,17.26
2022-11-16T06:59:08.293Z,16.80
2022-11-16T06:59:48.331Z,16.54
2022-11-16T07:00:28.328Z,16.96
2022-11-16T07:01:17.478Z,16.69
2022-11-16T07:01:57.421Z,16.79
2022-11-16T07:02:37.451Z,16.74
2022-11-16T07:03:17.313Z,16.26
2022-11-16T07:03:57.444Z,16.44
2022-11-16T07:04:39.343Z,16.10
2022-11-16T07:05:19.260Z,16.48
2022-11-16T07:05:59.304Z,15.89
2022-11-16T07:06:39.280Z,16.17
2022-11-16T07:07:19.448Z,16.25
2022-11-16T07:08:03.468Z,16.35
2022-11-16T07:08:43.424Z,16.60
2022-11-16T07:09:24.253Z,16.36
2022-11-16T07:10:04.322Z,16.79
2022-11-16T07:10:45.314Z,16.42
2022-11-16T07:11:25.329Z,16.51
2022-11-16T07:12:05.276Z,16.75
2022-11-16T07:12:45.306Z,16.65
2022-11-16T07:13:25.265Z,16.41
2022-11-16T07:14:05.381Z,16.71
2022-11-16T07:14:45.270Z,16.94
2022-11-16T07:15:26.299Z,17.39
2022-11-16T07:16:10.270Z,17.48
2022-11-16T07:16:52.673Z,17.06
2022-11-16T07:17:36.305Z,17.41
2022-11-16T07:18:16.304Z,17.27
2022-11-16T07:18:57.240Z,17.45
2022-11-16T07:19:37.289Z,17.41
2022-11-16T07:20:18.249Z,17.40
2022-11-16T07:20:58.369Z,16.81
2022-11-16T07:21:39.286Z,16.75
2022-11-16T07:22:19.510Z,16.85
2022-11-16T07:22:59.245Z,16.74
2022-11-16T07:23:39.333Z,16.74
2022-11-16T07:24:19.273Z,16.81
2022-11-16T07:24:59.280Z,16.76
2022-11-16T07:25:40.220Z,16.23
2022-11-16T07:26:20.279Z,16.01
2022-11-16T07:27:00.266Z,16.76
2022-11-16T07:27:40.374Z,17.27
2022-11-16T07:28:20.251Z,17.77
2022-11-16T07:29:00.284Z,17.59
2022-11-16T07:29:41.236Z,17.30
2022-11-16T07:30:21.375Z,16.95
2022-11-16T07:31:02.231Z,17.13
2022-11-16T07:31:42.296Z,16.86
2022-11-16T07:32:22.248Z,17.13
2022-11-16T07:33:06.482Z,17.08
2022-11-16T07:33:47.219Z,16.50
2022-11-16T07:34:27.272Z,17.19
2022-11-16T07:35:07.261Z,16.54
2022-11-16T07:35:47.284Z,16.60
2022-11-16T07:36:28.252Z,16.52
2022-11-16T07:37:08.287Z,16.77
2022-11-16T07:37:48.275Z,17.13
2022-11-16T07:38:28.314Z,17.14
2022-11-16T07:39:09.224Z,16.16
2022-11-16T07:39:49.300Z,16.39
2022-11-16T07:40:30.240Z,16.81
2022-11-16T07:41:17.342Z,16.58
2022-11-16T07:42:00.378Z,16.29
2022-11-16T07:42:40.384Z,16.59
2022-11-16T07:43:20.260Z,16.16
2022-11-16T07:44:01.180Z,15.90
2022-11-16T07:44:41.217Z,15.94
2022-11-16T07:45:21.268Z,15.86
2022-11-16T07:46:38.041Z,15.86
2022-11-16T07:47:05.356Z,15.66
2022-11-16T07:47:45.244Z,15.59
2022-11-16T07:48:32.571Z,15.70
2022-11-16T07:49:28.236Z,15.76
2022-11-16T07:50:22.243Z,15.50
2022-11-16T07:51:19.221Z,15.27
2022-11-16T07:52:13.232Z,15.50
2022-11-16T07:53:09.225Z,16.34
2022-11-16T07:54:02.250Z,16.11
2022-11-16T07:54:36.310Z,16.49
2022-11-16T07:55:23.215Z,16.56
2022-11-16T07:56:00.303Z,15.98
2022-11-16T07:56:48.209Z,15.69
2022-11-16T07:57:22.255Z,14.73
2022-11-16T07:58:10.223Z,14.88
2022-11-16T07:58:45.704Z,14.95
2022-11-16T07:59:25.205Z,14.54
2022-11-16T08:00:05.277Z,14.51
2022-11-16T08:00:45.215Z,14.81
2022-11-16T08:01:26.305Z,15.01
2022-11-16T08:02:07.295Z,15.23
2022-11-16T08:02:47.267Z,15.11
2022-11-16T08:03:28.214Z,15.41
2022-11-16T08:04:08.319Z,15.61
2022-11-16T08:04:48.260Z,15.14
2022-11-16T08:05:28.250Z,15.65
2022-11-16T08:06:12.206Z,15.84
2022-11-16T08:06:52.601Z,16.24
2022-11-16T08:07:32.242Z,15.95
2022-11-16T08:08:12.277Z,16.01
2022-11-16T08:08:57.851Z,15.75
2022-11-16T08:09:39.347Z,15.46
2022-11-16T08:10:19.253Z,15.55
2022-11-16T08:10:59.239Z,15.26
2022-11-16T08:11:40.190Z,15.14
2022-11-16T08:12:20.249Z,15.32
2022-11-16T08:13:01.197Z,15.86
2022-11-16T08:13:43.305Z,15.82
2022-11-16T08:14:25.217Z,16.08
2022-11-16T08:15:05.249Z,16.86
2022-11-16T08:15:45.226Z,17.10
2022-11-16T08:16:28.623Z,17.27
2022-11-16T08:17:10.212Z,17.30
2022-11-16T08:17:50.230Z,17.50
2022-11-16T08:18:30.241Z,17.21
2022-11-16T08:19:10.579Z,17.16
2022-11-16T08:19:50.229Z,17.10
2022-11-16T08:20:31.396Z,16.96
2022-11-16T08:21:14.190Z,17.19
2022-11-16T08:21:54.295Z,17.16
2022-11-16T08:22:34.165Z,17.41
2022-11-16T08:23:14.641Z,17.45
2022-11-16T08:23:58.365Z,17.50
2022-11-16T08:24:39.232Z,17.39
2022-11-16T08:25:20.188Z,17.27
2022-11-16T08:26:09.436Z,17.11
2022-11-16T08:26:50.224Z,16.89
2022-11-16T08:27:30.349Z,16.38
2022-11-16T08:28:10.187Z,16.14
2022-11-16T08:28:53.770Z,16.25
2022-11-16T08:29:34.200Z,16.44
2022-11-16T08:30:15.275Z,16.45
2022-11-16T08:30:58.160Z,16.24
2022-11-16T08:31:38.244Z,17.64
2022-11-16T08:32:18.175Z,20.61
2022-11-16T08:32:58.263Z,22.95
2022-11-16T08:33:38.185Z,22.99
2022-11-16T08:34:18.219Z,23.15
2022-11-16T08:34:58.185Z,22.01
2022-11-16T08:35:38.305Z,22.58
2022-11-16T08:36:23.164Z,22.38
2022-11-16T08:37:03.306Z,21.65
2022-11-16T08:37:43.208Z,21.27
2022-11-16T08:38:23.178Z,19.70
2022-11-16T08:39:04.188Z,19.44
2022-11-16T08:39:44.249Z,18.70
2022-11-16T08:40:25.167Z,18.91
2022-11-16T08:41:05.239Z,18.80
2022-11-16T08:41:48.147Z,18.34
2022-11-16T08:42:28.212Z,18.31
2022-11-16T08:43:08.197Z,17.92
2022-11-16T08:43:50.465Z,16.66
2022-11-16T08:44:30.180Z,16.05
2022-11-16T08:45:10.287Z,15.25
2022-11-16T08:45:55.169Z,14.31
2022-11-16T08:46:35.312Z,14.20
2022-11-16T08:47:15.164Z,14.21
2022-11-16T08:48:03.344Z,14.49
2022-11-16T08:48:45.168Z,14.55
2022-11-16T08:49:25.196Z,14.98
2022-11-16T08:50:06.143Z,14.80
2022-11-16T08:51:15.363Z,14.54
2022-11-16T08:51:46.179Z,15.14
2022-11-16T08:52:26.203Z,15.71
2022-11-16T08:53:07.175Z,15.20
2022-11-16T08:53:54.226Z,15.38
2022-11-16T08:54:48.176Z,15.81
2022-11-16T08:55:42.157Z,15.35
2022-11-16T08:56:36.167Z,14.96
2022-11-16T08:57:30.161Z,14.65
2022-11-16T08:58:24.155Z,13.91
2022-11-16T08:59:11.196Z,13.84
2022-11-16T08:59:45.211Z,14.07
2022-11-16T09:00:32.169Z,13.56
2022-11-16T09:01:06.208Z,13.39
2022-11-16T09:01:53.232Z,13.07
2022-11-16T09:02:27.229Z,13.00
2022-11-16T09:03:14.151Z,12.89
2022-11-16T09:03:49.201Z,12.40
2022-11-16T09:04:37.308Z,12.32
2022-11-16T09:05:12.275Z,12.29
2022-11-16T09:05:59.150Z,12.79
2022-11-16T09:06:34.263Z,12.77
2022-11-16T09:07:21.255Z,12.48
2022-11-16T09:07:55.224Z,12.49
2022-11-16T09:08:45.123Z,13.48
2022-11-16T09:09:19.184Z,14.49
2022-11-16T09:09:59.185Z,14.59
2022-11-16T09:10:39.181Z,14.31
2022-11-16T09:11:23.123Z,13.76
2022-11-16T09:12:03.234Z,13.27
2022-11-16T09:12:44.173Z,12.43
2022-11-16T09:13:39.156Z,12.36
2022-11-16T09:14:35.176Z,12.56
2022-11-16T09:15:22.171Z,11.90
2022-11-16T09:16:03.150Z,11.77
2022-11-16T09:16:50.137Z,11.77
2022-11-16T09:17:24.175Z,11.68
2022-11-16T09:18:11.145Z,11.60
2022-11-16T09:18:47.145Z,11.86
2022-11-16T09:19:34.140Z,12.30
2022-11-16T09:20:08.168Z,11.93
2022-11-16T09:20:52.140Z,12.20
2022-11-16T09:21:37.515Z,12.27
2022-11-16T09:22:17.132Z,11.79
2022-11-16T09:22:57.203Z,11.85
2022-11-16T09:23:38.137Z,11.91
2022-11-16T09:24:18.173Z,11.63
2022-11-16T09:24:58.139Z,11.96
2022-11-16T09:25:38.190Z,11.93
2022-11-16T09:26:20.149Z,11.65
2022-11-16T09:27:01.429Z,12.46
2022-11-16T09:27:42.123Z,12.23
2022-11-16T09:28:23.265Z,11.68
2022-11-16T09:29:06.130Z,11.51
2022-11-16T09:29:46.271Z,11.35
2022-11-16T09:30:26.117Z,11.29
2022-11-16T09:31:10.236Z,11.24
2022-11-16T09:31:50.165Z,11.45
2022-11-16T09:32:31.167Z,11.45
2022-11-16T09:33:11.142Z,11.41
2022-11-16T09:33:51.217Z,11.38
2022-11-16T09:34:32.114Z,11.46
2022-11-16T09:35:13.181Z,11.55
2022-11-16T09:35:53.115Z,11.59
2022-11-16T09:36:34.182Z,11.66
2022-11-16T09:37:15.111Z,11.93
2022-11-16T09:37:55.219Z,11.71
2022-11-16T09:39:03.169Z,11.73